createdAt,value
2023-07-19T00:02:13.105Z,100051.89
2023-07-19T00:04:40.504Z,100055.39
2023-07-19T00:07:07.629Z,100060.92
2023-07-19T00:09:34.767Z,100064.09
2023-07-19T00:12:01.897Z,100067.30
2023-07-19T00:14:28.934Z,100071.65
2023-07-19T00:16:56.376Z,100071.67
2023-07-19T00:19:25.618Z,100074.07
2023-07-19T00:21:52.731Z,100082.11
2023-07-19T00:24:20.899Z,100081.73
2023-07-19T00:26:50.177Z,100079.82
2023-07-19T00:29:17.325Z,100073.98
2023-07-19T00:31:45.205Z,100077.66
2023-07-19T00:34:13.070Z,100078.14
2023-07-19T00:36:40.312Z,100068.73
2023-07-19T00:39:07.391Z,100064.88
2023-07-19T00:41:35.778Z,100059.37
2023-07-19T00:44:05.014Z,100053.79
2023-07-19T00:46:32.230Z,100048.73
2023-07-19T00:48:59.756Z,100045.21
2023-07-19T00:51:26.779Z,100047.14
2023-07-19T00:53:53.842Z,100046.88
2023-07-19T00:56:23.980Z,100042.41
2023-07-19T00:58:51.974Z,100040.34
2023-07-19T01:01:21.938Z,100034.09
2023-07-19T01:03:49.208Z,100024.98
2023-07-19T01:06:16.312Z,100012.09
2023-07-19T01:08:43.461Z,100015.89
2023-07-19T01:11:10.973Z,100025.30
2023-07-19T01:13:38.838Z,100021.42
2023-07-19T01:16:05.900Z,100017.23
2023-07-19T01:18:33.770Z,100009.02
2023-07-19T01:21:10.217Z,100005.12
2023-07-19T01:23:45.804Z,100011.71
2023-07-19T01:26:12.923Z,100022.59
2023-07-19T01:28:40.496Z,100017.90
2023-07-19T01:31:08.008Z,100014.55
2023-07-19T01:33:35.251Z,100008.85
2023-07-19T01:36:02.456Z,100008.93
2023-07-19T01:38:31.328Z,100009.98
2023-07-19T01:40:58.432Z,100017.36
2023-07-19T01:43:25.504Z,100022.17
2023-07-19T01:45:53.806Z,100009.36
2023-07-19T01:48:20.882Z,100000.46
2023-07-19T01:50:48.756Z,100006.30
2023-07-19T01:53:16.511Z,100016.08
2023-07-19T01:55:43.793Z,100013.39
2023-07-19T01:58:12.320Z,100013.56
2023-07-19T02:00:42.082Z,100022.15
2023-07-19T02:03:12.163Z,100022.64
2023-07-19T02:05:39.850Z,100019.31
2023-07-19T02:08:08.611Z,100030.30
2023-07-19T02:10:35.660Z,100042.31
2023-07-19T02:13:02.779Z,100042.98
2023-07-19T02:15:30.002Z,100042.33
2023-07-19T02:17:58.934Z,100041.73
2023-07-19T02:20:26.093Z,100042.38
2023-07-19T02:22:53.809Z,100040.42
2023-07-19T02:25:21.922Z,100047.35
2023-07-19T02:27:49.111Z,100038.33
2023-07-19T02:30:16.378Z,100034.56
2023-07-19T02:32:45.356Z,100033.89
2023-07-19T02:35:13.245Z,100024.95
2023-07-19T02:37:41.769Z,100026.41
2023-07-19T02:40:09.941Z,100030.26
2023-07-19T02:42:37.242Z,100031.30
2023-07-19T02:45:05.692Z,100036.63
2023-07-19T02:47:33.724Z,100038.65
2023-07-19T02:50:00.967Z,100036.13
2023-07-19T02:52:28.206Z,100029.13
2023-07-19T02:54:55.325Z,100029.38
2023-07-19T02:57:22.551Z,100033.25
2023-07-19T02:59:49.797Z,100033.30
2023-07-19T03:02:17.038Z,100035.34
2023-07-19T03:04:46.814Z,100036.89
2023-07-19T03:07:15.545Z,100036.77
2023-07-19T03:09:42.636Z,100035.89
2023-07-19T03:12:09.821Z,100026.56
2023-07-19T03:14:36.880Z,100026.65
2023-07-19T03:17:04.162Z,100020.78
2023-07-19T03:19:31.561Z,100016.20
2023-07-19T03:21:58.682Z,100019.98
2023-07-19T03:24:25.799Z,100022.23
2023-07-19T03:26:52.851Z,100021.48
2023-07-19T03:29:20.547Z,100025.08
2023-07-19T03:31:47.830Z,100033.46
2023-07-19T03:34:15.564Z,100033.55
2023-07-19T03:36:45.786Z,100034.42
2023-07-19T03:39:13.176Z,100032.59
2023-07-19T03:41:40.320Z,100032.16
2023-07-19T03:44:07.628Z,100032.99
2023-07-19T03:46:35.120Z,100024.33
2023-07-19T03:49:02.284Z,100020.95
2023-07-19T03:51:29.504Z,100025.27
2023-07-19T03:53:57.545Z,100035.94
2023-07-19T03:56:24.680Z,100030.48
2023-07-19T03:58:53.037Z,100031.23
2023-07-19T04:01:20.600Z,100028.55
2023-07-19T04:03:50.370Z,100034.89
2023-07-19T04:06:18.671Z,100043.98
2023-07-19T04:08:46.978Z,100033.68
2023-07-19T04:11:14.093Z,100036.97
2023-07-19T04:13:41.352Z,100046.97
2023-07-19T04:16:08.544Z,100050.81
2023-07-19T04:18:35.743Z,100054.94
2023-07-19T04:21:03.823Z,100057.73
2023-07-19T04:23:31.099Z,100064.93
2023-07-19T04:25:59.678Z,100070.13
2023-07-19T04:28:27.765Z,100072.38
2023-07-19T04:30:55.461Z,100066.64
2023-07-19T04:33:22.749Z,100064.84
2023-07-19T04:35:50.767Z,100069.16
2023-07-19T04:38:18.455Z,100061.00
2023-07-19T04:40:45.739Z,100060.14
2023-07-19T04:43:13.141Z,100064.73
2023-07-19T04:45:45.002Z,100064.29
2023-07-19T04:48:14.810Z,100069.95
2023-07-19T04:50:41.903Z,100068.31
2023-07-19T04:53:09.197Z,100068.98
2023-07-19T04:55:36.457Z,100063.16
2023-07-19T04:58:04.357Z,100058.50
2023-07-19T05:00:31.506Z,100058.13
2023-07-19T05:02:58.741Z,100052.63
2023-07-19T05:05:27.321Z,100048.73
2023-07-19T05:07:54.535Z,100055.81
2023-07-19T05:10:22.617Z,100053.71
2023-07-19T05:12:50.213Z,100054.69
2023-07-19T05:15:17.527Z,100050.23
2023-07-19T05:17:44.762Z,100047.00
2023-07-19T05:20:12.568Z,100049.66
2023-07-19T05:22:40.146Z,100056.72
2023-07-19T05:25:08.218Z,100053.02
2023-07-19T05:27:36.565Z,100055.11
2023-07-19T05:30:05.843Z,100056.39
2023-07-19T05:32:33.205Z,100055.33
2023-07-19T05:35:00.809Z,100060.84
2023-07-19T05:37:28.886Z,100054.90
2023-07-19T05:39:56.155Z,100052.77
2023-07-19T05:42:23.331Z,100051.95
2023-07-19T05:44:50.400Z,100052.65
2023-07-19T05:47:18.712Z,100052.36
2023-07-19T05:49:46.426Z,100053.35
2023-07-19T05:52:13.613Z,100055.05
2023-07-19T05:54:40.715Z,100059.56
2023-07-19T05:57:07.859Z,100062.14
2023-07-19T05:59:35.831Z,100057.36
2023-07-19T06:02:03.106Z,100058.04
2023-07-19T06:04:30.626Z,100059.98
2023-07-19T06:06:58.044Z,100051.90
2023-07-19T06:09:25.593Z,100047.48
2023-07-19T06:11:54.758Z,100048.44
2023-07-19T06:14:21.846Z,100051.55
2023-07-19T06:16:49.056Z,100061.61
2023-07-19T06:19:17.779Z,100066.10
2023-07-19T06:21:45.053Z,100073.69
2023-07-19T06:24:12.234Z,100080.91
2023-07-19T06:26:39.359Z,100083.65
2023-07-19T06:29:06.497Z,100085.19
2023-07-19T06:31:34.107Z,100089.17
2023-07-19T06:34:01.641Z,100094.00
2023-07-19T06:36:29.212Z,100094.14
2023-07-19T06:38:56.840Z,100093.77
2023-07-19T06:41:24.089Z,100089.31
2023-07-19T06:43:51.287Z,100087.85
2023-07-19T06:46:18.387Z,100083.63
2023-07-19T06:48:46.412Z,100083.80
2023-07-19T06:51:13.591Z,100088.36
2023-07-19T06:53:41.476Z,100086.53
2023-07-19T06:56:09.024Z,100084.87
2023-07-19T06:58:36.138Z,100087.39
2023-07-19T07:01:03.274Z,100087.71
2023-07-19T07:03:31.586Z,100088.85
2023-07-19T07:06:01.039Z,100085.89
2023-07-19T07:08:29.391Z,100077.44
2023-07-19T07:10:56.523Z,100079.58
2023-07-19T07:13:23.682Z,100074.73
2023-07-19T07:15:53.089Z,100072.96
2023-07-19T07:18:20.246Z,100071.72
2023-07-19T07:20:47.896Z,100069.48
2023-07-19T07:23:15.401Z,100062.23
2023-07-19T07:25:42.674Z,100057.46
2023-07-19T07:28:09.990Z,100054.52
2023-07-19T07:30:38.254Z,100061.20
2023-07-19T07:33:06.093Z,100059.23
2023-07-19T07:35:33.422Z,100055.60
2023-07-19T07:38:00.636Z,100055.11
2023-07-19T07:40:27.743Z,100059.90
2023-07-19T07:42:54.904Z,100058.05
2023-07-19T07:45:22.239Z,100053.23
2023-07-19T07:47:49.408Z,100044.30
2023-07-19T07:50:17.907Z,100039.81
2023-07-19T07:52:52.545Z,100036.77
2023-07-19T07:55:22.623Z,100028.11
2023-07-19T07:57:50.786Z,100020.36
2023-07-19T08:00:19.254Z,100020.63
2023-07-19T08:02:46.687Z,100026.10
2023-07-19T08:05:13.845Z,100028.01
2023-07-19T08:07:41.222Z,100032.16
2023-07-19T08:10:08.675Z,100040.54
2023-07-19T08:12:35.772Z,100043.62
2023-07-19T08:15:02.881Z,100048.82
2023-07-19T08:17:30.048Z,100048.10
2023-07-19T08:19:57.256Z,100053.29
2023-07-19T08:22:25.986Z,100056.88
2023-07-19T08:24:52.948Z,100055.29
2023-07-19T08:27:20.099Z,100052.45
2023-07-19T08:29:47.641Z,100057.79
2023-07-19T08:32:15.149Z,100058.44
2023-07-19T08:34:44.069Z,100052.39
2023-07-19T08:37:11.238Z,100051.27
2023-07-19T08:39:38.639Z,100042.05
2023-07-19T08:42:06.034Z,100043.48
2023-07-19T08:44:33.316Z,100044.73
2023-07-19T08:47:00.511Z,100042.39
2023-07-19T08:49:27.658Z,100035.19
2023-07-19T08:51:54.742Z,100030.89
2023-07-19T08:54:21.933Z,100032.96
2023-07-19T08:56:49.859Z,100031.63
2023-07-19T08:59:17.536Z,100027.03
2023-07-19T09:01:44.718Z,100032.60
2023-07-19T09:04:13.477Z,100027.71
2023-07-19T09:06:40.881Z,100029.96
2023-07-19T09:09:13.852Z,100027.36
2023-07-19T09:11:52.463Z,100025.13
2023-07-19T09:14:19.588Z,100025.52
2023-07-19T09:16:47.311Z,100029.48
2023-07-19T09:19:14.508Z,100028.84
2023-07-19T09:21:48.625Z,100032.38
2023-07-19T09:24:16.197Z,100039.22
2023-07-19T09:26:59.192Z,100040.79
2023-07-19T09:29:30.235Z,100045.91
2023-07-19T09:32:01.449Z,100049.19
2023-07-19T09:34:30.181Z,100055.69
2023-07-19T09:36:57.220Z,100050.17
2023-07-19T09:39:24.418Z,100046.11
2023-07-19T09:41:53.501Z,100043.14
2023-07-19T09:44:20.696Z,100046.55
2023-07-19T09:46:47.913Z,100043.84
2023-07-19T09:49:17.997Z,100047.67
2023-07-19T09:51:45.218Z,100044.31
2023-07-19T09:54:14.043Z,100048.77
2023-07-19T09:56:42.166Z,100046.95
2023-07-19T09:59:16.400Z,100048.50
2023-07-19T10:01:44.919Z,100051.20
2023-07-19T10:04:25.889Z,100048.56
2023-07-19T10:07:16.546Z,100040.55
2023-07-19T10:09:45.830Z,100033.80
2023-07-19T10:12:19.323Z,100035.89
2023-07-19T10:15:02.409Z,100030.23
2023-07-19T10:17:31.378Z,100021.89
2023-07-19T10:20:14.292Z,100019.80
2023-07-19T10:22:48.468Z,100026.01
2023-07-19T10:25:17.882Z,100029.19
2023-07-19T10:27:55.375Z,100022.44
2023-07-19T10:30:22.599Z,100025.45
2023-07-19T10:32:52.526Z,100020.94
2023-07-19T10:35:31.943Z,100016.64
2023-07-19T10:38:01.024Z,100018.08
2023-07-19T10:40:28.705Z,100015.54
2023-07-19T10:42:56.020Z,100014.66
2023-07-19T10:45:27.156Z,100008.48
2023-07-19T10:47:55.180Z,100002.92
2023-07-19T10:50:26.190Z,99995.48
2023-07-19T10:52:53.317Z,99986.16
2023-07-19T10:55:46.712Z,99984.54
2023-07-19T10:58:07.634Z,99973.02
2023-07-19T11:00:39.457Z,99969.85
2023-07-19T11:03:07.165Z,99962.45
2023-07-19T11:05:34.743Z,99957.57
2023-07-19T11:08:01.903Z,99955.25
2023-07-19T11:10:29.239Z,99951.64
2023-07-19T11:12:58.866Z,99943.11
2023-07-19T11:15:28.282Z,99935.31
2023-07-19T11:17:58.990Z,99934.11
2023-07-19T11:20:31.840Z,99935.80
2023-07-19T11:23:09.648Z,99935.83
2023-07-19T11:25:36.928Z,99937.38
2023-07-19T11:28:04.244Z,99934.09
2023-07-19T11:30:41.496Z,99929.56
2023-07-19T11:33:10.975Z,99924.61
2023-07-19T11:35:39.127Z,99914.35
2023-07-19T11:38:06.263Z,99909.56
2023-07-19T11:40:33.461Z,99905.09
2023-07-19T11:43:02.688Z,99898.00
2023-07-19T11:45:30.026Z,99897.51
2023-07-19T11:48:00.045Z,99902.44
2023-07-19T11:50:27.295Z,99903.68
2023-07-19T11:53:03.086Z,99904.73
2023-07-19T11:55:31.011Z,99901.74
2023-07-19T11:58:04.448Z,99898.90
2023-07-19T12:00:32.583Z,99892.89
2023-07-19T12:03:00.080Z,99898.86
2023-07-19T12:05:27.471Z,99895.82
2023-07-19T12:07:56.148Z,99895.34
2023-07-19T12:10:24.178Z,99889.16
2023-07-19T12:12:54.964Z,99884.34
2023-07-19T12:15:25.733Z,99883.09
2023-07-19T12:17:54.264Z,99877.39
2023-07-19T12:20:21.439Z,99881.70
2023-07-19T12:22:50.598Z,99879.81
2023-07-19T12:25:19.431Z,99874.55
2023-07-19T12:27:48.862Z,99872.83
2023-07-19T12:30:15.960Z,99865.06
2023-07-19T12:32:43.222Z,99859.17
2023-07-19T12:35:10.413Z,99855.71
2023-07-19T12:37:37.551Z,99849.13
2023-07-19T12:40:10.617Z,99845.02
2023-07-19T12:42:38.005Z,99840.79
2023-07-19T12:45:06.848Z,99837.50
2023-07-19T12:47:38.014Z,99835.96
2023-07-19T12:50:08.736Z,99829.14
2023-07-19T12:52:50.021Z,99825.02
2023-07-19T12:55:19.350Z,99820.89
2023-07-19T12:57:46.524Z,99813.67
2023-07-19T13:00:15.081Z,99811.04
2023-07-19T13:02:45.837Z,99807.78
2023-07-19T13:05:13.475Z,99795.85
2023-07-19T13:07:40.629Z,99792.45
2023-07-19T13:10:11.932Z,99795.55
2023-07-19T13:12:39.677Z,99792.49
2023-07-19T13:15:08.089Z,99788.77
2023-07-19T13:17:36.258Z,99777.59
2023-07-19T13:20:10.262Z,99772.88
2023-07-19T13:22:38.236Z,99772.61
2023-07-19T13:25:07.034Z,99774.10
2023-07-19T13:27:36.454Z,99771.75
2023-07-19T13:30:09.010Z,99768.16
2023-07-19T13:32:37.119Z,99759.63
2023-07-19T13:35:05.068Z,99751.86
2023-07-19T13:40:03.290Z,99744.63
2023-07-19T13:42:34.041Z,99745.33
2023-07-19T13:45:02.934Z,99744.13
2023-07-19T13:47:30.134Z,99738.41
2023-07-19T13:49:57.277Z,99733.35
2023-07-19T13:52:24.515Z,99722.23
2023-07-19T13:54:52.974Z,99717.34
2023-07-19T13:57:20.161Z,99708.24
2023-07-19T13:59:47.887Z,99697.39
2023-07-19T14:02:15.034Z,99691.01
2023-07-19T14:04:42.379Z,99681.88
2023-07-19T14:07:09.549Z,99675.86
2023-07-19T14:09:36.997Z,99669.18
2023-07-19T14:12:04.723Z,99668.10
2023-07-19T14:14:45.020Z,99661.94
2023-07-19T14:17:12.715Z,99651.59
2023-07-19T14:19:40.134Z,99657.75
2023-07-19T14:22:07.777Z,99663.36
2023-07-19T14:24:34.957Z,99670.09
2023-07-19T14:27:02.524Z,99667.58
2023-07-19T14:29:29.868Z,99659.87
2023-07-19T14:31:57.149Z,99646.80
2023-07-19T14:34:25.948Z,99637.14
2023-07-19T14:36:53.576Z,99644.04
2023-07-19T14:39:21.875Z,99651.15
2023-07-19T14:41:57.924Z,99646.61
2023-07-19T14:44:26.228Z,99642.15
2023-07-19T14:46:53.331Z,99646.48
2023-07-19T14:49:20.615Z,99649.73
2023-07-19T14:51:47.735Z,99658.68
2023-07-19T14:54:15.098Z,99673.54
2023-07-19T14:56:43.696Z,99687.14
2023-07-19T14:59:10.842Z,99702.14
2023-07-19T15:01:38.058Z,99701.66
2023-07-19T15:04:05.337Z,99698.49
2023-07-19T15:06:32.578Z,99687.98
2023-07-19T15:09:01.842Z,99682.60
2023-07-19T15:11:29.587Z,99689.16
2023-07-19T15:13:59.232Z,99688.96
2023-07-19T15:16:26.805Z,99690.10
2023-07-19T15:18:54.350Z,99683.00
2023-07-19T15:21:21.497Z,99682.42
2023-07-19T15:23:50.368Z,99684.47
2023-07-19T15:28:48.307Z,99681.04
2023-07-19T15:31:15.764Z,99677.95
2023-07-19T15:33:42.929Z,99668.25
2023-07-19T15:36:10.109Z,99663.46
2023-07-19T15:38:45.669Z,99667.13
2023-07-19T15:41:13.841Z,99672.34
2023-07-19T15:43:44.440Z,99673.48
2023-07-19T15:46:14.461Z,99668.40
2023-07-19T15:48:41.836Z,99677.27
2023-07-19T15:51:08.974Z,99677.14
2023-07-19T15:53:37.798Z,99674.66
2023-07-19T15:56:07.155Z,99676.92
2023-07-19T15:58:34.524Z,99681.98
2023-07-19T16:01:02.560Z,99681.36
2023-07-19T16:03:30.190Z,99677.71
2023-07-19T16:05:57.604Z,99674.05
2023-07-19T16:08:24.793Z,99674.15
2023-07-19T16:10:51.962Z,99673.29
2023-07-19T16:13:19.028Z,99669.73
2023-07-19T16:15:47.006Z,99673.67
2023-07-19T16:18:14.651Z,99667.11
2023-07-19T16:20:43.432Z,99665.06
2023-07-19T16:23:11.094Z,99660.92
2023-07-19T16:25:38.395Z,99648.21
2023-07-19T16:28:05.612Z,99645.90
2023-07-19T16:30:33.144Z,99634.85
2023-07-19T16:33:00.623Z,99632.59
2023-07-19T16:35:31.804Z,99629.42
2023-07-19T16:37:59.058Z,99626.16
2023-07-19T16:40:26.307Z,99620.90
2023-07-19T16:42:53.452Z,99624.66
2023-07-19T16:45:20.555Z,99626.39
2023-07-19T16:47:47.726Z,99628.83
2023-07-19T16:50:17.292Z,99637.69
2023-07-19T16:52:44.453Z,99649.66
2023-07-19T16:55:11.936Z,99657.52
2023-07-19T16:57:39.853Z,99661.98
2023-07-19T17:00:17.118Z,99663.48
2023-07-19T17:02:45.268Z,99660.72
2023-07-19T17:05:12.539Z,99661.50
2023-07-19T17:07:39.869Z,99667.98
2023-07-19T17:10:07.470Z,99661.42
2023-07-19T17:12:34.652Z,99659.27
2023-07-19T17:15:02.006Z,99658.26
2023-07-19T17:17:29.420Z,99660.24
2023-07-19T17:19:56.642Z,99661.63
2023-07-19T17:22:25.640Z,99663.96
2023-07-19T17:24:52.713Z,99671.50
2023-07-19T17:27:20.238Z,99671.85
2023-07-19T17:29:47.292Z,99669.11
2023-07-19T17:32:14.518Z,99659.31
2023-07-19T17:34:41.679Z,99656.32
2023-07-19T17:37:08.809Z,99659.37
2023-07-19T17:39:35.986Z,99653.16
2023-07-19T17:42:03.508Z,99652.56
2023-07-19T17:44:31.875Z,99649.55
2023-07-19T17:46:58.988Z,99648.89
2023-07-19T17:49:26.168Z,99645.71
2023-07-19T17:51:53.599Z,99636.62
2023-07-19T17:54:22.406Z,99635.02
2023-07-19T17:56:55.555Z,99632.99
2023-07-19T17:59:26.188Z,99628.94
2023-07-19T18:01:54.853Z,99625.68
2023-07-19T18:04:22.438Z,99619.80
2023-07-19T18:06:50.059Z,99612.40
2023-07-19T18:09:22.171Z,99616.33
2023-07-19T18:11:49.430Z,99614.08
2023-07-19T18:14:16.956Z,99614.52
2023-07-19T18:16:44.344Z,99621.06
2023-07-19T18:19:11.968Z,99625.27
2023-07-19T18:21:45.127Z,99630.73
2023-07-19T18:24:18.184Z,99631.48
2023-07-19T18:26:47.203Z,99640.08
2023-07-19T18:29:16.334Z,99647.04
2023-07-19T18:31:43.626Z,99653.80
2023-07-19T18:34:29.531Z,99658.19
2023-07-19T18:36:57.613Z,99655.66
2023-07-19T18:39:26.018Z,99656.06
2023-07-19T18:41:53.086Z,99655.05
2023-07-19T18:44:21.948Z,99650.12
2023-07-19T18:46:49.685Z,99650.28
2023-07-19T18:49:17.896Z,99653.14
2023-07-19T18:51:45.203Z,99655.34
2023-07-19T18:54:15.915Z,99655.59
2023-07-19T18:56:43.581Z,99657.48
2023-07-19T18:59:11.687Z,99660.98
2023-07-19T19:01:39.487Z,99663.36
2023-07-19T19:04:06.761Z,99668.50
2023-07-19T19:06:34.011Z,99669.11
2023-07-19T19:09:06.991Z,99666.25
2023-07-19T19:11:34.427Z,99669.86
2023-07-19T19:14:01.807Z,99672.36
2023-07-19T19:16:29.893Z,99677.17
2023-07-19T19:19:00.572Z,99684.89
2023-07-19T19:21:29.913Z,99685.84
2023-07-19T19:23:58.622Z,99687.42
2023-07-19T19:26:25.877Z,99688.20
2023-07-19T19:28:54.252Z,99689.85
2023-07-19T19:31:22.986Z,99687.95
2023-07-19T19:33:50.939Z,99691.66
2023-07-19T19:36:18.205Z,99691.52
2023-07-19T19:38:45.614Z,99694.69
2023-07-19T19:41:13.085Z,99693.27
2023-07-19T19:43:40.331Z,99695.45
2023-07-19T19:46:07.590Z,99698.90
2023-07-19T19:48:35.211Z,99699.86
2023-07-19T19:51:02.380Z,99704.37
2023-07-19T19:53:32.019Z,99699.95
2023-07-19T19:56:17.669Z,99695.26
2023-07-19T19:58:47.098Z,99688.86
2023-07-19T20:01:15.895Z,99683.61
2023-07-19T20:03:43.357Z,99673.59
2023-07-19T20:06:10.932Z,99672.70
2023-07-19T20:08:38.219Z,99674.32
2023-07-19T20:11:06.086Z,99676.11
2023-07-19T20:13:33.392Z,99685.81
2023-07-19T20:16:01.281Z,99691.20
2023-07-19T20:20:59.669Z,99692.73
2023-07-19T20:23:26.949Z,99690.95
2023-07-19T20:26:11.206Z,99684.52
2023-07-19T20:28:39.965Z,99678.65
2023-07-19T20:31:07.229Z,99667.45
2023-07-19T20:33:34.967Z,99667.39
2023-07-19T20:43:35.257Z,99674.64
2023-07-19T20:48:34.808Z,99670.42
2023-07-19T20:51:04.017Z,99673.78
2023-07-19T20:53:31.334Z,99676.48
2023-07-19T20:55:58.551Z,99670.61
2023-07-19T20:58:26.222Z,99671.96
2023-07-19T21:00:56.753Z,99672.49
2023-07-19T21:03:25.684Z,99666.74
2023-07-19T21:05:53.062Z,99668.67
2023-07-19T21:08:20.436Z,99672.77
2023-07-19T21:10:47.795Z,99673.07
2023-07-19T21:13:14.998Z,99675.28
2023-07-19T21:15:42.187Z,99678.86
2023-07-19T21:18:09.496Z,99678.56
2023-07-19T21:20:36.712Z,99675.34
2023-07-19T21:23:03.991Z,99679.14
2023-07-19T21:25:31.332Z,99678.32
2023-07-19T21:27:58.521Z,99683.91
2023-07-19T21:30:25.829Z,99686.03
2023-07-19T21:32:53.032Z,99689.02
2023-07-19T21:35:20.191Z,99689.27
2023-07-19T21:37:47.393Z,99692.79
2023-07-19T21:40:15.852Z,99690.05
2023-07-19T21:42:43.121Z,99690.08
2023-07-19T21:45:10.759Z,99685.39
2023-07-19T21:47:38.321Z,99689.21
2023-07-19T21:50:06.264Z,99699.30
2023-07-19T21:52:33.387Z,99703.39
2023-07-19T21:55:00.559Z,99705.53
2023-07-19T21:57:28.275Z,99705.29
2023-07-19T21:59:58.119Z,99708.73
2023-07-19T22:02:25.422Z,99715.41
2023-07-19T22:04:52.672Z,99719.59
2023-07-19T22:07:19.852Z,99726.20
2023-07-19T22:09:51.021Z,99731.05
2023-07-19T22:12:18.764Z,99741.00
2023-07-19T22:14:53.937Z,99750.20
2023-07-19T22:17:28.974Z,99756.48
2023-07-19T22:19:56.206Z,99760.85
2023-07-19T22:22:23.462Z,99760.91
2023-07-19T22:24:50.788Z,99757.52
2023-07-19T22:27:17.945Z,99759.83
2023-07-19T22:29:45.724Z,99765.63
2023-07-19T22:32:12.974Z,99760.95
2023-07-19T22:34:40.174Z,99760.98
2023-07-19T22:37:07.436Z,99764.77
2023-07-19T22:39:35.306Z,99764.40
2023-07-19T22:42:02.452Z,99765.08
2023-07-19T22:44:31.512Z,99767.73
2023-07-19T22:46:58.837Z,99770.66
2023-07-19T22:49:26.162Z,99773.63
2023-07-19T22:51:54.709Z,99778.05
2023-07-19T22:54:23.002Z,99776.34
2023-07-19T22:56:50.183Z,99766.72
2023-07-19T22:59:17.351Z,99764.54
2023-07-19T23:01:46.206Z,99763.83
2023-07-19T23:04:13.374Z,99764.55
2023-07-19T23:06:41.375Z,99761.36
2023-07-19T23:09:08.660Z,99757.86
2023-07-19T23:11:39.561Z,99754.54
2023-07-19T23:14:09.950Z,99754.02
2023-07-19T23:16:37.685Z,99747.83
2023-07-19T23:19:04.881Z,99747.64
2023-07-19T23:21:33.038Z,99747.88
2023-07-19T23:24:00.332Z,99748.85
2023-07-19T23:26:27.588Z,99753.04
2023-07-19T23:28:55.983Z,99757.70
2023-07-19T23:31:23.252Z,99757.82
2023-07-19T23:33:50.460Z,99759.15
2023-07-19T23:36:17.734Z,99758.05
2023-07-19T23:38:46.613Z,99760.39
2023-07-19T23:41:13.945Z,99752.20
2023-07-19T23:43:41.296Z,99746.73
2023-07-19T23:46:11.620Z,99748.99
2023-07-19T23:48:40.800Z,99756.49
2023-07-19T23:51:07.975Z,99763.09
2023-07-19T23:53:35.203Z,99765.64
2023-07-19T23:56:02.465Z,99768.67
2023-07-19T23:58:29.696Z,99770.48
